Cheatham Observed Data For Previous 48 Hours

Caption
Day and Hour Reservoir Elevation (behind dam)* Tailwater Elevation (below dam)* Average Hourly Discharge*
7/14/2018 1 AM CDT 385.22 360.43 6,800
7/14/2018 2 AM CDT 385.39 360.13 6,800
7/14/2018 3 AM CDT 385.56 359.83 6,800
7/14/2018 4 AM CDT 385.66 359.63 6,700
7/14/2018 5 AM CDT 385.74 359.43 6,700
7/14/2018 6 AM CDT 385.74 359.43 6,700
7/14/2018 7 AM CDT 385.72 359.12 6,700
7/14/2018 8 AM CDT 385.68 358.98 6,700
7/14/2018 9 AM CDT 385.67 358.97 6,700
7/14/2018 10 AM CDT 385.65 358.95 6,700
7/14/2018 11 AM CDT 385.67 358.97 6,700
7/14/2018 12 PM CDT 385.58 358.88 6,700
7/14/2018 1 PM CDT 385.38 359.08 13,400
7/14/2018 2 PM CDT 385.34 359.14 13,400
7/14/2018 3 PM CDT 384.78 359.48 20,400
7/14/2018 4 PM CDT 384.69 359.69 20,700
7/14/2018 5 PM CDT 384.39 360.09 20,700
7/14/2018 6 PM CDT 384.60 359.90 13,600
7/14/2018 7 PM CDT 384.55 360.31 14,000
7/14/2018 8 PM CDT 384.49 360.63 14,000
7/14/2018 9 PM CDT 384.70 360.16 6,900
7/14/2018 10 PM CDT 384.83 359.97 6,800
7/14/2018 11 PM CDT 384.91 359.80 6,800
7/15/2018 12 AM CDT 384.95 359.78 6,800
7/15/2018 1 AM CDT 385.02 359.44 6,800
7/15/2018 2 AM CDT 385.27 359.07 0
7/15/2018 3 AM CDT 385.36 358.88 0
7/15/2018 4 AM CDT 385.41 358.67 0
7/15/2018 5 AM CDT 385.41 358.50 0
7/15/2018 6 AM CDT 385.29 358.57 6,700
7/15/2018 7 AM CDT 385.31 358.51 6,600
7/15/2018 8 AM CDT 385.33 358.53 6,600
7/15/2018 9 AM CDT 385.37 358.67 6,700
7/15/2018 10 AM CDT 385.37 358.67 6,700
7/15/2018 11 AM CDT 385.39 358.69 6,700
7/15/2018 12 PM CDT 385.39 358.79 6,700
7/15/2018 1 PM CDT 385.43 358.73 6,700
7/15/2018 2 PM CDT 385.18 358.98 13,400
7/15/2018 3 PM CDT 384.72 359.32 20,400
7/15/2018 4 PM CDT 384.60 359.60 20,400
7/15/2018 5 PM CDT 384.55 359.65 20,400
7/15/2018 6 PM CDT 384.50 359.70 20,400
7/15/2018 7 PM CDT 384.45 360.43 13,600
7/15/2018 8 PM CDT 384.44 360.52 13,600
7/15/2018 9 PM CDT 384.70 360.36 6,900
7/15/2018 10 PM CDT 384.82 360.18 6,900
7/15/2018 11 PM CDT 384.92 359.97 6,800
7/16/2018 12 AM CDT 384.94 359.80 6,800

Elevations are in feet above sea level. Discharges are in cubic feet per second and are reported at the end of the hour.